Terminal Aerodrome Forecast
Issued by NWS Northern Indiana

Home | Current Version | Previous Version | Text Only | Print | Product List | Glossary On
Versions: 1 2 3 4 5 6 7 8 9 10 11 12 13 14 15 16
807
FTUS43 KIWX 160520
TAFFWA
TAF
KFWA 160520Z 1606/1706 22013KT P6SM OVC050
     FM161600 23008KT P6SM SCT250
     FM162200 17005KT P6SM FEW250=

USA.gov is the U.S. government's official web portal to all federal, state and local government web resources and services.